sensor_id;sensor_type;location;lat;lon;timestamp;P1;durP1;ratioP1;P2;durP2;ratioP2
16440;SDS011;8330;-33.858;151.184;2022-09-09T00:00:43;2.53;;;0.98;;
16440;SDS011;8330;-33.858;151.184;2022-09-09T00:03:18;1.00;;;0.88;;
16440;SDS011;8330;-33.858;151.184;2022-09-09T00:05:57;3.15;;;1.10;;
16440;SDS011;8330;-33.858;151.184;2022-09-09T00:08:35;1.92;;;0.98;;
16440;SDS011;8330;-33.858;151.184;2022-09-09T00:11:24;1.30;;;0.90;;
16440;SDS011;8330;-33.858;151.184;2022-09-09T00:14:03;1.02;;;0.85;;
16440;SDS011;8330;-33.858;151.184;2022-09-09T00:16:43;2.45;;;0.80;;
16440;SDS011;8330;-33.858;151.184;2022-09-09T00:19:22;2.28;;;0.90;;
16440;SDS011;8330;-33.858;151.184;2022-09-09T00:22:03;2.13;;;0.90;;
16440;SDS011;8330;-33.858;151.184;2022-09-09T00:24:44;2.45;;;0.98;;
16440;SDS011;8330;-33.858;151.184;2022-09-09T00:27:19;3.63;;;0.90;;
16440;SDS011;8330;-33.858;151.184;2022-09-09T00:29:56;1.42;;;0.80;;
16440;SDS011;8330;-33.858;151.184;2022-09-09T00:32:31;2.25;;;1.15;;
16440;SDS011;8330;-33.858;151.184;2022-09-09T00:35:03;3.80;;;1.10;;
16440;SDS011;8330;-33.858;151.184;2022-09-09T00:37:44;2.17;;;0.90;;
16440;SDS011;8330;-33.858;151.184;2022-09-09T00:40:25;1.60;;;0.80;;
16440;SDS011;8330;-33.858;151.184;2022-09-09T00:43:09;3.17;;;1.02;;
16440;SDS011;8330;-33.858;151.184;2022-09-09T00:45:59;1.83;;;0.98;;
16440;SDS011;8330;-33.858;151.184;2022-09-09T00:48:46;2.50;;;1.10;;
16440;SDS011;8330;-33.858;151.184;2022-09-09T00:51:23;2.40;;;1.20;;
16440;SDS011;8330;-33.858;151.184;2022-09-09T00:57:04;2.20;;;0.90;;
16440;SDS011;8330;-33.858;151.184;2022-09-09T00:59:47;1.48;;;0.82;;
16440;SDS011;8330;-33.858;151.184;2022-09-09T01:02:26;1.88;;;1.00;;
16440;SDS011;8330;-33.858;151.184;2022-09-09T01:05:00;1.00;;;0.88;;
16440;SDS011;8330;-33.858;151.184;2022-09-09T01:07:36;1.85;;;1.05;;
16440;SDS011;8330;-33.858;151.184;2022-09-09T01:10:08;2.97;;;0.80;;
16440;SDS011;8330;-33.858;151.184;2022-09-09T01:12:47;2.25;;;0.80;;
16440;SDS011;8330;-33.858;151.184;2022-09-09T01:15:22;0.93;;;0.70;;
16440;SDS011;8330;-33.858;151.184;2022-09-09T01:17:58;1.25;;;0.77;;
16440;SDS011;8330;-33.858;151.184;2022-09-09T01:20:36;1.38;;;0.90;;
16440;SDS011;8330;-33.858;151.184;2022-09-09T01:23:19;1.30;;;0.80;;
16440;SDS011;8330;-33.858;151.184;2022-09-09T01:26:11;1.67;;;0.70;;
16440;SDS011;8330;-33.858;151.184;2022-09-09T01:28:50;1.90;;;0.70;;
16440;SDS011;8330;-33.858;151.184;2022-09-09T01:31:23;0.88;;;0.60;;
16440;SDS011;8330;-33.858;151.184;2022-09-09T01:33:58;1.70;;;0.70;;
16440;SDS011;8330;-33.858;151.184;2022-09-09T01:36:31;1.48;;;0.70;;
16440;SDS011;8330;-33.858;151.184;2022-09-09T01:39:11;1.08;;;0.70;;
16440;SDS011;8330;-33.858;151.184;2022-09-09T01:41:44;1.20;;;0.70;;
16440;SDS011;8330;-33.858;151.184;2022-09-09T01:44:16;1.27;;;0.60;;
16440;SDS011;8330;-33.858;151.184;2022-09-09T01:46:48;1.05;;;0.63;;
16440;SDS011;8330;-33.858;151.184;2022-09-09T01:49:18;2.92;;;0.70;;
16440;SDS011;8330;-33.858;151.184;2022-09-09T01:51:49;1.15;;;0.70;;
16440;SDS011;8330;-33.858;151.184;2022-09-09T01:54:23;0.95;;;0.60;;
16440;SDS011;8330;-33.858;151.184;2022-09-09T01:57:00;1.05;;;0.50;;
16440;SDS011;8330;-33.858;151.184;2022-09-09T01:59:51;0.68;;;0.47;;
16440;SDS011;8330;-33.858;151.184;2022-09-09T02:02:32;1.02;;;0.50;;
16440;SDS011;8330;-33.858;151.184;2022-09-09T02:05:07;0.88;;;0.60;;
16440;SDS011;8330;-33.858;151.184;2022-09-09T02:07:57;0.57;;;0.43;;
16440;SDS011;8330;-33.858;151.184;2022-09-09T02:10:35;0.50;;;0.40;;
16440;SDS011;8330;-33.858;151.184;2022-09-09T02:13:13;0.43;;;0.43;;
16440;SDS011;8330;-33.858;151.184;2022-09-09T02:15:47;0.40;;;0.40;;
16440;SDS011;8330;-33.858;151.184;2022-09-09T02:18:25;0.52;;;0.52;;
16440;SDS011;8330;-33.858;151.184;2022-09-09T02:20:57;0.40;;;0.40;;
16440;SDS011;8330;-33.858;151.184;2022-09-09T02:23:29;0.57;;;0.35;;
16440;SDS011;8330;-33.858;151.184;2022-09-09T02:26:01;0.73;;;0.43;;
16440;SDS011;8330;-33.858;151.184;2022-09-09T02:28:35;0.57;;;0.43;;
16440;SDS011;8330;-33.858;151.184;2022-09-09T02:31:08;1.15;;;0.40;;
16440;SDS011;8330;-33.858;151.184;2022-09-09T02:33:40;0.85;;;0.30;;
16440;SDS011;8330;-33.858;151.184;2022-09-09T02:36:13;1.15;;;0.40;;
16440;SDS011;8330;-33.858;151.184;2022-09-09T02:38:46;0.50;;;0.50;;
16440;SDS011;8330;-33.858;151.184;2022-09-09T02:41:19;0.77;;;0.50;;
16440;SDS011;8330;-33.858;151.184;2022-09-09T02:43:56;0.60;;;0.60;;
16440;SDS011;8330;-33.858;151.184;2022-09-09T02:46:34;1.13;;;0.43;;
16440;SDS011;8330;-33.858;151.184;2022-09-09T02:49:18;0.50;;;0.40;;
16440;SDS011;8330;-33.858;151.184;2022-09-09T02:51:56;0.35;;;0.32;;
16440;SDS011;8330;-33.858;151.184;2022-09-09T02:54:32;0.55;;;0.55;;
16440;SDS011;8330;-33.858;151.184;2022-09-09T02:57:06;0.30;;;0.30;;
16440;SDS011;8330;-33.858;151.184;2022-09-09T02:59:42;1.30;;;0.50;;
16440;SDS011;8330;-33.858;151.184;2022-09-09T03:02:14;0.60;;;0.45;;
16440;SDS011;8330;-33.858;151.184;2022-09-09T03:04:44;0.50;;;0.30;;
16440;SDS011;8330;-33.858;151.184;2022-09-09T03:07:17;0.43;;;0.40;;
16440;SDS011;8330;-33.858;151.184;2022-09-09T03:09:48;0.40;;;0.40;;
16440;SDS011;8330;-33.858;151.184;2022-09-09T03:12:21;0.40;;;0.30;;
16440;SDS011;8330;-33.858;151.184;2022-09-09T03:14:54;0.40;;;0.40;;
16440;SDS011;8330;-33.858;151.184;2022-09-09T03:17:24;0.50;;;0.38;;
16440;SDS011;8330;-33.858;151.184;2022-09-09T03:19:57;0.30;;;0.30;;
16440;SDS011;8330;-33.858;151.184;2022-09-09T03:22:27;0.68;;;0.40;;
16440;SDS011;8330;-33.858;151.184;2022-09-09T03:24:58;1.23;;;0.30;;
16440;SDS011;8330;-33.858;151.184;2022-09-09T03:27:29;0.50;;;0.40;;
16440;SDS011;8330;-33.858;151.184;2022-09-09T03:30:02;0.63;;;0.30;;
16440;SDS011;8330;-33.858;151.184;2022-09-09T03:32:33;0.40;;;0.30;;
16440;SDS011;8330;-33.858;151.184;2022-09-09T03:35:06;0.47;;;0.47;;
16440;SDS011;8330;-33.858;151.184;2022-09-09T03:37:38;0.65;;;0.50;;
16440;SDS011;8330;-33.858;151.184;2022-09-09T03:40:09;0.70;;;0.50;;
16440;SDS011;8330;-33.858;151.184;2022-09-09T03:42:40;1.73;;;0.57;;
16440;SDS011;8330;-33.858;151.184;2022-09-09T03:45:13;1.08;;;0.50;;
16440;SDS011;8330;-33.858;151.184;2022-09-09T03:47:43;1.90;;;0.95;;
16440;SDS011;8330;-33.858;151.184;2022-09-09T03:50:15;3.45;;;0.85;;
16440;SDS011;8330;-33.858;151.184;2022-09-09T03:52:46;1.63;;;0.88;;
16440;SDS011;8330;-33.858;151.184;2022-09-09T03:55:16;3.42;;;1.10;;
16440;SDS011;8330;-33.858;151.184;2022-09-09T03:57:47;3.30;;;0.95;;
16440;SDS011;8330;-33.858;151.184;2022-09-09T04:00:21;6.55;;;1.15;;
16440;SDS011;8330;-33.858;151.184;2022-09-09T04:02:52;3.00;;;0.90;;
16440;SDS011;8330;-33.858;151.184;2022-09-09T04:05:23;0.68;;;0.50;;
16440;SDS011;8330;-33.858;151.184;2022-09-09T04:07:55;1.35;;;0.77;;
16440;SDS011;8330;-33.858;151.184;2022-09-09T04:10:25;2.90;;;0.70;;
16440;SDS011;8330;-33.858;151.184;2022-09-09T04:12:56;0.52;;;0.47;;
16440;SDS011;8330;-33.858;151.184;2022-09-09T04:15:29;0.30;;;0.20;;
16440;SDS011;8330;-33.858;151.184;2022-09-09T04:18:02;0.32;;;0.32;;
16440;SDS011;8330;-33.858;151.184;2022-09-09T04:20:33;0.65;;;0.40;;
16440;SDS011;8330;-33.858;151.184;2022-09-09T04:23:04;1.30;;;0.57;;
16440;SDS011;8330;-33.858;151.184;2022-09-09T04:25:35;0.43;;;0.43;;
16440;SDS011;8330;-33.858;151.184;2022-09-09T04:28:06;0.98;;;0.40;;
16440;SDS011;8330;-33.858;151.184;2022-09-09T04:30:39;0.40;;;0.40;;
16440;SDS011;8330;-33.858;151.184;2022-09-09T04:33:10;1.25;;;0.50;;
16440;SDS011;8330;-33.858;151.184;2022-09-09T04:35:44;0.98;;;0.60;;
16440;SDS011;8330;-33.858;151.184;2022-09-09T04:38:15;1.38;;;0.47;;
16440;SDS011;8330;-33.858;151.184;2022-09-09T04:40:46;0.40;;;0.40;;
16440;SDS011;8330;-33.858;151.184;2022-09-09T04:43:18;0.43;;;0.40;;
16440;SDS011;8330;-33.858;151.184;2022-09-09T04:45:51;1.08;;;0.30;;
16440;SDS011;8330;-33.858;151.184;2022-09-09T04:48:21;0.40;;;0.38;;
16440;SDS011;8330;-33.858;151.184;2022-09-09T04:50:56;0.38;;;0.38;;
16440;SDS011;8330;-33.858;151.184;2022-09-09T04:53:28;0.40;;;0.40;;
16440;SDS011;8330;-33.858;151.184;2022-09-09T04:56:03;0.52;;;0.50;;
16440;SDS011;8330;-33.858;151.184;2022-09-09T04:58:37;0.63;;;0.32;;
16440;SDS011;8330;-33.858;151.184;2022-09-09T05:01:11;0.88;;;0.40;;
16440;SDS011;8330;-33.858;151.184;2022-09-09T05:03:43;0.77;;;0.52;;
16440;SDS011;8330;-33.858;151.184;2022-09-09T05:06:16;0.60;;;0.50;;
16440;SDS011;8330;-33.858;151.184;2022-09-09T05:08:48;0.70;;;0.60;;
16440;SDS011;8330;-33.858;151.184;2022-09-09T05:11:19;1.10;;;0.50;;
16440;SDS011;8330;-33.858;151.184;2022-09-09T05:13:51;0.70;;;0.40;;
16440;SDS011;8330;-33.858;151.184;2022-09-09T05:16:24;0.60;;;0.40;;
16440;SDS011;8330;-33.858;151.184;2022-09-09T05:18:55;0.45;;;0.30;;
16440;SDS011;8330;-33.858;151.184;2022-09-09T05:21:29;2.40;;;0.47;;
16440;SDS011;8330;-33.858;151.184;2022-09-09T05:24:00;3.78;;;0.90;;
16440;SDS011;8330;-33.858;151.184;2022-09-09T05:26:31;4.65;;;1.67;;
16440;SDS011;8330;-33.858;151.184;2022-09-09T05:29:02;5.10;;;1.70;;
16440;SDS011;8330;-33.858;151.184;2022-09-09T05:31:34;4.20;;;1.33;;
16440;SDS011;8330;-33.858;151.184;2022-09-09T05:34:05;6.90;;;1.88;;
16440;SDS011;8330;-33.858;151.184;2022-09-09T05:36:36;4.30;;;1.63;;
16440;SDS011;8330;-33.858;151.184;2022-09-09T05:39:07;3.65;;;1.45;;
16440;SDS011;8330;-33.858;151.184;2022-09-09T05:41:38;3.65;;;1.52;;
16440;SDS011;8330;-33.858;151.184;2022-09-09T05:44:10;3.05;;;1.45;;
16440;SDS011;8330;-33.858;151.184;2022-09-09T05:46:43;5.30;;;1.92;;
16440;SDS011;8330;-33.858;151.184;2022-09-09T05:49:14;6.78;;;1.80;;
16440;SDS011;8330;-33.858;151.184;2022-09-09T05:51:45;4.72;;;1.77;;
16440;SDS011;8330;-33.858;151.184;2022-09-09T05:54:16;3.10;;;1.60;;
16440;SDS011;8330;-33.858;151.184;2022-09-09T05:56:47;10.27;;;2.30;;
16440;SDS011;8330;-33.858;151.184;2022-09-09T05:59:19;5.50;;;2.00;;
16440;SDS011;8330;-33.858;151.184;2022-09-09T06:01:52;4.32;;;1.35;;
16440;SDS011;8330;-33.858;151.184;2022-09-09T06:04:23;4.47;;;1.73;;
16440;SDS011;8330;-33.858;151.184;2022-09-09T06:06:56;4.57;;;1.70;;
16440;SDS011;8330;-33.858;151.184;2022-09-09T06:09:27;6.95;;;1.90;;
16440;SDS011;8330;-33.858;151.184;2022-09-09T06:11:58;4.78;;;2.30;;
16440;SDS011;8330;-33.858;151.184;2022-09-09T06:14:28;4.68;;;2.47;;
16440;SDS011;8330;-33.858;151.184;2022-09-09T06:17:01;3.13;;;1.40;;
16440;SDS011;8330;-33.858;151.184;2022-09-09T06:19:33;2.58;;;1.45;;
16440;SDS011;8330;-33.858;151.184;2022-09-09T06:22:05;3.67;;;1.30;;
16440;SDS011;8330;-33.858;151.184;2022-09-09T06:24:38;5.38;;;1.02;;
16440;SDS011;8330;-33.858;151.184;2022-09-09T06:27:12;3.72;;;1.27;;
16440;SDS011;8330;-33.858;151.184;2022-09-09T06:29:45;2.10;;;1.00;;
16440;SDS011;8330;-33.858;151.184;2022-09-09T06:32:18;1.58;;;0.80;;
16440;SDS011;8330;-33.858;151.184;2022-09-09T06:34:49;1.98;;;0.80;;
16440;SDS011;8330;-33.858;151.184;2022-09-09T06:37:19;1.48;;;1.00;;
16440;SDS011;8330;-33.858;151.184;2022-09-09T06:39:53;2.35;;;0.80;;
16440;SDS011;8330;-33.858;151.184;2022-09-09T06:42:23;4.00;;;0.98;;
16440;SDS011;8330;-33.858;151.184;2022-09-09T06:44:54;4.05;;;1.10;;
16440;SDS011;8330;-33.858;151.184;2022-09-09T06:47:27;1.73;;;1.30;;
16440;SDS011;8330;-33.858;151.184;2022-09-09T06:49:59;1.55;;;0.93;;
16440;SDS011;8330;-33.858;151.184;2022-09-09T06:52:31;2.03;;;1.10;;
16440;SDS011;8330;-33.858;151.184;2022-09-09T06:55:02;2.42;;;1.23;;
16440;SDS011;8330;-33.858;151.184;2022-09-09T06:57:33;5.88;;;1.83;;
16440;SDS011;8330;-33.858;151.184;2022-09-09T07:00:04;4.55;;;2.08;;
16440;SDS011;8330;-33.858;151.184;2022-09-09T07:02:37;4.82;;;1.85;;
16440;SDS011;8330;-33.858;151.184;2022-09-09T07:05:10;5.30;;;1.83;;
16440;SDS011;8330;-33.858;151.184;2022-09-09T07:07:41;7.63;;;2.15;;
16440;SDS011;8330;-33.858;151.184;2022-09-09T07:10:12;4.82;;;1.70;;
16440;SDS011;8330;-33.858;151.184;2022-09-09T07:12:43;5.32;;;1.85;;
16440;SDS011;8330;-33.858;151.184;2022-09-09T07:15:18;5.35;;;1.67;;
16440;SDS011;8330;-33.858;151.184;2022-09-09T07:17:54;4.60;;;1.60;;
16440;SDS011;8330;-33.858;151.184;2022-09-09T07:20:29;1.80;;;1.30;;
16440;SDS011;8330;-33.858;151.184;2022-09-09T07:23:01;3.08;;;1.50;;
16440;SDS011;8330;-33.858;151.184;2022-09-09T07:25:31;3.72;;;1.63;;
16440;SDS011;8330;-33.858;151.184;2022-09-09T07:28:02;2.70;;;1.38;;
16440;SDS011;8330;-33.858;151.184;2022-09-09T07:30:34;2.58;;;1.40;;
16440;SDS011;8330;-33.858;151.184;2022-09-09T07:33:08;2.55;;;1.40;;
16440;SDS011;8330;-33.858;151.184;2022-09-09T07:35:39;3.83;;;1.38;;
16440;SDS011;8330;-33.858;151.184;2022-09-09T07:38:09;3.90;;;1.85;;
16440;SDS011;8330;-33.858;151.184;2022-09-09T07:40:41;4.00;;;1.70;;
16440;SDS011;8330;-33.858;151.184;2022-09-09T07:43:11;4.55;;;1.52;;
16440;SDS011;8330;-33.858;151.184;2022-09-09T07:45:44;7.53;;;1.80;;
16440;SDS011;8330;-33.858;151.184;2022-09-09T07:48:18;3.65;;;1.50;;
16440;SDS011;8330;-33.858;151.184;2022-09-09T07:50:48;3.58;;;1.65;;
16440;SDS011;8330;-33.858;151.184;2022-09-09T07:53:19;3.50;;;1.50;;
16440;SDS011;8330;-33.858;151.184;2022-09-09T07:55:50;2.47;;;1.38;;
16440;SDS011;8330;-33.858;151.184;2022-09-09T07:58:22;5.43;;;1.75;;
16440;SDS011;8330;-33.858;151.184;2022-09-09T08:00:52;5.30;;;1.73;;
16440;SDS011;8330;-33.858;151.184;2022-09-09T08:03:25;4.70;;;1.88;;
16440;SDS011;8330;-33.858;151.184;2022-09-09T08:06:00;5.82;;;1.95;;
16440;SDS011;8330;-33.858;151.184;2022-09-09T08:08:33;6.63;;;1.92;;
16440;SDS011;8330;-33.858;151.184;2022-09-09T08:11:05;5.43;;;1.83;;
16440;SDS011;8330;-33.858;151.184;2022-09-09T08:13:37;7.22;;;2.30;;
16440;SDS011;8330;-33.858;151.184;2022-09-09T08:16:10;4.38;;;2.00;;
16440;SDS011;8330;-33.858;151.184;2022-09-09T08:18:44;4.30;;;2.20;;
16440;SDS011;8330;-33.858;151.184;2022-09-09T08:21:15;5.60;;;2.22;;
16440;SDS011;8330;-33.858;151.184;2022-09-09T08:23:49;4.65;;;2.00;;
16440;SDS011;8330;-33.858;151.184;2022-09-09T08:26:22;3.90;;;2.00;;
16440;SDS011;8330;-33.858;151.184;2022-09-09T08:28:54;4.22;;;1.77;;
16440;SDS011;8330;-33.858;151.184;2022-09-09T08:31:30;6.40;;;2.25;;
16440;SDS011;8330;-33.858;151.184;2022-09-09T08:34:04;4.68;;;2.42;;
16440;SDS011;8330;-33.858;151.184;2022-09-09T08:36:37;4.88;;;1.92;;
16440;SDS011;8330;-33.858;151.184;2022-09-09T08:39:09;4.32;;;1.80;;
16440;SDS011;8330;-33.858;151.184;2022-09-09T08:41:46;5.43;;;1.50;;
16440;SDS011;8330;-33.858;151.184;2022-09-09T08:44:37;2.60;;;1.35;;
16440;SDS011;8330;-33.858;151.184;2022-09-09T08:47:28;2.92;;;1.25;;
16440;SDS011;8330;-33.858;151.184;2022-09-09T08:50:16;1.60;;;1.17;;
16440;SDS011;8330;-33.858;151.184;2022-09-09T08:52:52;1.45;;;1.17;;
16440;SDS011;8330;-33.858;151.184;2022-09-09T08:55:32;1.83;;;1.20;;
16440;SDS011;8330;-33.858;151.184;2022-09-09T08:58:13;2.45;;;1.30;;
16440;SDS011;8330;-33.858;151.184;2022-09-09T09:00:49;2.83;;;1.23;;
16440;SDS011;8330;-33.858;151.184;2022-09-09T09:03:32;2.33;;;1.50;;
16440;SDS011;8330;-33.858;151.184;2022-09-09T09:06:18;4.75;;;3.13;;
16440;SDS011;8330;-33.858;151.184;2022-09-09T09:09:04;2.10;;;1.75;;
16440;SDS011;8330;-33.858;151.184;2022-09-09T09:11:43;3.55;;;1.38;;
16440;SDS011;8330;-33.858;151.184;2022-09-09T09:14:17;3.38;;;1.80;;
16440;SDS011;8330;-33.858;151.184;2022-09-09T09:16:52;1.40;;;1.30;;
16440;SDS011;8330;-33.858;151.184;2022-09-09T09:19:25;3.08;;;1.50;;
16440;SDS011;8330;-33.858;151.184;2022-09-09T09:21:59;3.63;;;1.50;;
16440;SDS011;8330;-33.858;151.184;2022-09-09T09:24:36;1.80;;;1.15;;
16440;SDS011;8330;-33.858;151.184;2022-09-09T09:27:18;2.13;;;1.00;;
16440;SDS011;8330;-33.858;151.184;2022-09-09T09:29:59;1.20;;;1.10;;
16440;SDS011;8330;-33.858;151.184;2022-09-09T09:32:35;3.17;;;1.20;;
16440;SDS011;8330;-33.858;151.184;2022-09-09T09:35:10;1.52;;;1.20;;
16440;SDS011;8330;-33.858;151.184;2022-09-09T09:37:44;1.70;;;1.10;;
16440;SDS011;8330;-33.858;151.184;2022-09-09T09:40:17;2.00;;;1.20;;
16440;SDS011;8330;-33.858;151.184;2022-09-09T09:42:52;2.20;;;1.70;;
16440;SDS011;8330;-33.858;151.184;2022-09-09T09:45:26;1.95;;;1.33;;
16440;SDS011;8330;-33.858;151.184;2022-09-09T09:48:01;1.65;;;1.35;;
16440;SDS011;8330;-33.858;151.184;2022-09-09T09:50:33;1.38;;;1.15;;
16440;SDS011;8330;-33.858;151.184;2022-09-09T09:53:17;1.90;;;1.30;;
16440;SDS011;8330;-33.858;151.184;2022-09-09T09:55:53;1.52;;;1.10;;
16440;SDS011;8330;-33.858;151.184;2022-09-09T09:58:26;1.65;;;1.05;;
16440;SDS011;8330;-33.858;151.184;2022-09-09T10:01:00;2.20;;;1.23;;
16440;SDS011;8330;-33.858;151.184;2022-09-09T10:03:33;1.17;;;0.98;;
16440;SDS011;8330;-33.858;151.184;2022-09-09T10:06:06;0.90;;;0.90;;
16440;SDS011;8330;-33.858;151.184;2022-09-09T10:08:46;1.10;;;0.90;;
16440;SDS011;8330;-33.858;151.184;2022-09-09T10:11:22;1.10;;;1.00;;
16440;SDS011;8330;-33.858;151.184;2022-09-09T10:14:00;1.25;;;1.00;;
16440;SDS011;8330;-33.858;151.184;2022-09-09T10:16:44;1.30;;;0.90;;
16440;SDS011;8330;-33.858;151.184;2022-09-09T10:19:31;1.10;;;1.00;;
16440;SDS011;8330;-33.858;151.184;2022-09-09T10:22:05;2.17;;;0.90;;
16440;SDS011;8330;-33.858;151.184;2022-09-09T10:24:58;1.30;;;1.02;;
16440;SDS011;8330;-33.858;151.184;2022-09-09T10:27:52;1.77;;;1.00;;
16440;SDS011;8330;-33.858;151.184;2022-09-09T10:30:41;1.10;;;1.00;;
16440;SDS011;8330;-33.858;151.184;2022-09-09T10:33:19;1.17;;;1.08;;
16440;SDS011;8330;-33.858;151.184;2022-09-09T10:35:58;1.58;;;1.20;;
16440;SDS011;8330;-33.858;151.184;2022-09-09T10:38:39;1.23;;;1.13;;
16440;SDS011;8330;-33.858;151.184;2022-09-09T10:41:15;1.55;;;1.38;;
16440;SDS011;8330;-33.858;151.184;2022-09-09T10:46:51;0.88;;;0.80;;
16440;SDS011;8330;-33.858;151.184;2022-09-09T10:49:43;0.80;;;0.80;;
16440;SDS011;8330;-33.858;151.184;2022-09-09T10:52:32;1.35;;;0.90;;
16440;SDS011;8330;-33.858;151.184;2022-09-09T10:55:14;0.80;;;0.80;;
16440;SDS011;8330;-33.858;151.184;2022-09-09T10:57:49;0.80;;;0.80;;
16440;SDS011;8330;-33.858;151.184;2022-09-09T11:00:22;1.10;;;0.88;;
16440;SDS011;8330;-33.858;151.184;2022-09-09T11:02:56;1.02;;;0.82;;
16440;SDS011;8330;-33.858;151.184;2022-09-09T11:05:30;0.82;;;0.70;;
16440;SDS011;8330;-33.858;151.184;2022-09-09T11:08:09;0.80;;;0.80;;
16440;SDS011;8330;-33.858;151.184;2022-09-09T11:10:43;0.70;;;0.70;;
16440;SDS011;8330;-33.858;151.184;2022-09-09T11:13:21;0.80;;;0.70;;
16440;SDS011;8330;-33.858;151.184;2022-09-09T11:15:58;0.80;;;0.60;;
16440;SDS011;8330;-33.858;151.184;2022-09-09T11:18:32;0.70;;;0.70;;
16440;SDS011;8330;-33.858;151.184;2022-09-09T11:21:10;0.63;;;0.63;;
16440;SDS011;8330;-33.858;151.184;2022-09-09T11:23:48;0.75;;;0.75;;
16440;SDS011;8330;-33.858;151.184;2022-09-09T11:26:28;0.57;;;0.57;;
16440;SDS011;8330;-33.858;151.184;2022-09-09T11:29:12;1.38;;;0.80;;
16440;SDS011;8330;-33.858;151.184;2022-09-09T11:32:09;1.00;;;0.77;;
16440;SDS011;8330;-33.858;151.184;2022-09-09T11:34:51;1.02;;;0.70;;
16440;SDS011;8330;-33.858;151.184;2022-09-09T11:37:39;1.25;;;0.75;;
16440;SDS011;8330;-33.858;151.184;2022-09-09T11:40:47;0.85;;;0.70;;
16440;SDS011;8330;-33.858;151.184;2022-09-09T11:43:27;0.68;;;0.68;;
16440;SDS011;8330;-33.858;151.184;2022-09-09T11:46:02;0.75;;;0.70;;
16440;SDS011;8330;-33.858;151.184;2022-09-09T11:48:34;1.30;;;0.60;;
16440;SDS011;8330;-33.858;151.184;2022-09-09T11:51:09;1.05;;;0.70;;
16440;SDS011;8330;-33.858;151.184;2022-09-09T11:53:49;2.15;;;0.70;;
16440;SDS011;8330;-33.858;151.184;2022-09-09T11:56:24;1.20;;;0.70;;
16440;SDS011;8330;-33.858;151.184;2022-09-09T11:59:04;0.88;;;0.80;;
16440;SDS011;8330;-33.858;151.184;2022-09-09T12:01:58;1.10;;;1.00;;
16440;SDS011;8330;-33.858;151.184;2022-09-09T12:04:48;1.40;;;0.82;;
16440;SDS011;8330;-33.858;151.184;2022-09-09T12:07:30;0.95;;;0.80;;
16440;SDS011;8330;-33.858;151.184;2022-09-09T12:12:54;0.60;;;0.60;;
16440;SDS011;8330;-33.858;151.184;2022-09-09T12:15:46;3.22;;;0.52;;
16440;SDS011;8330;-33.858;151.184;2022-09-09T12:18:32;0.80;;;0.80;;
16440;SDS011;8330;-33.858;151.184;2022-09-09T12:21:06;1.88;;;0.90;;
16440;SDS011;8330;-33.858;151.184;2022-09-09T12:23:43;0.73;;;0.70;;
16440;SDS011;8330;-33.858;151.184;2022-09-09T12:26:23;0.80;;;0.60;;
16440;SDS011;8330;-33.858;151.184;2022-09-09T12:29:05;0.65;;;0.65;;
16440;SDS011;8330;-33.858;151.184;2022-09-09T12:32:01;0.70;;;0.70;;
16440;SDS011;8330;-33.858;151.184;2022-09-09T12:34:44;0.93;;;0.60;;
16440;SDS011;8330;-33.858;151.184;2022-09-09T12:37:24;0.80;;;0.50;;
16440;SDS011;8330;-33.858;151.184;2022-09-09T12:40:01;0.63;;;0.63;;
16440;SDS011;8330;-33.858;151.184;2022-09-09T12:42:39;1.10;;;0.90;;
16440;SDS011;8330;-33.858;151.184;2022-09-09T12:45:22;1.75;;;0.70;;
16440;SDS011;8330;-33.858;151.184;2022-09-09T12:47:55;1.05;;;0.50;;
16440;SDS011;8330;-33.858;151.184;2022-09-09T12:50:37;0.47;;;0.45;;
16440;SDS011;8330;-33.858;151.184;2022-09-09T12:53:16;0.40;;;0.40;;
16440;SDS011;8330;-33.858;151.184;2022-09-09T12:55:56;0.60;;;0.60;;
16440;SDS011;8330;-33.858;151.184;2022-09-09T12:58:35;1.25;;;0.50;;
16440;SDS011;8330;-33.858;151.184;2022-09-09T13:01:17;0.47;;;0.47;;
16440;SDS011;8330;-33.858;151.184;2022-09-09T13:03:51;0.28;;;0.28;;
16440;SDS011;8330;-33.858;151.184;2022-09-09T13:06:36;0.63;;;0.30;;
16440;SDS011;8330;-33.858;151.184;2022-09-09T13:09:08;0.68;;;0.30;;
16440;SDS011;8330;-33.858;151.184;2022-09-09T13:11:40;0.50;;;0.40;;
16440;SDS011;8330;-33.858;151.184;2022-09-09T13:14:14;0.52;;;0.30;;
16440;SDS011;8330;-33.858;151.184;2022-09-09T13:16:54;0.32;;;0.30;;
16440;SDS011;8330;-33.858;151.184;2022-09-09T13:19:35;0.30;;;0.20;;
16440;SDS011;8330;-33.858;151.184;2022-09-09T13:22:23;0.45;;;0.30;;
16440;SDS011;8330;-33.858;151.184;2022-09-09T13:25:17;0.40;;;0.40;;
16440;SDS011;8330;-33.858;151.184;2022-09-09T13:27:55;1.50;;;0.30;;
16440;SDS011;8330;-33.858;151.184;2022-09-09T13:30:54;0.77;;;0.30;;
16440;SDS011;8330;-33.858;151.184;2022-09-09T13:33:33;0.28;;;0.28;;
16440;SDS011;8330;-33.858;151.184;2022-09-09T13:36:05;0.40;;;0.40;;
16440;SDS011;8330;-33.858;151.184;2022-09-09T13:38:40;0.30;;;0.30;;
16440;SDS011;8330;-33.858;151.184;2022-09-09T13:41:25;1.52;;;0.30;;
16440;SDS011;8330;-33.858;151.184;2022-09-09T13:44:00;0.85;;;0.30;;
16440;SDS011;8330;-33.858;151.184;2022-09-09T13:46:33;0.17;;;0.17;;
16440;SDS011;8330;-33.858;151.184;2022-09-09T13:49:18;0.47;;;0.30;;
16440;SDS011;8330;-33.858;151.184;2022-09-09T13:51:50;0.25;;;0.25;;
16440;SDS011;8330;-33.858;151.184;2022-09-09T13:54:34;0.22;;;0.22;;
16440;SDS011;8330;-33.858;151.184;2022-09-09T13:57:05;0.20;;;0.20;;
16440;SDS011;8330;-33.858;151.184;2022-09-09T13:59:43;0.30;;;0.30;;
16440;SDS011;8330;-33.858;151.184;2022-09-09T14:02:14;0.45;;;0.30;;
16440;SDS011;8330;-33.858;151.184;2022-09-09T14:04:47;0.30;;;0.30;;
16440;SDS011;8330;-33.858;151.184;2022-09-09T14:07:21;0.20;;;0.20;;
16440;SDS011;8330;-33.858;151.184;2022-09-09T14:09:54;0.40;;;0.25;;
16440;SDS011;8330;-33.858;151.184;2022-09-09T14:12:26;0.70;;;0.52;;
16440;SDS011;8330;-33.858;151.184;2022-09-09T14:14:57;0.10;;;0.10;;
16440;SDS011;8330;-33.858;151.184;2022-09-09T14:17:27;0.40;;;0.22;;
16440;SDS011;8330;-33.858;151.184;2022-09-09T14:19:58;0.30;;;0.22;;
16440;SDS011;8330;-33.858;151.184;2022-09-09T14:22:29;0.35;;;0.20;;
16440;SDS011;8330;-33.858;151.184;2022-09-09T14:25:02;0.43;;;0.25;;
16440;SDS011;8330;-33.858;151.184;2022-09-09T14:27:33;0.20;;;0.20;;
16440;SDS011;8330;-33.858;151.184;2022-09-09T14:30:05;0.45;;;0.20;;
16440;SDS011;8330;-33.858;151.184;2022-09-09T14:32:37;0.17;;;0.10;;
16440;SDS011;8330;-33.858;151.184;2022-09-09T14:35:08;0.10;;;0.10;;
16440;SDS011;8330;-33.858;151.184;2022-09-09T14:37:40;0.30;;;0.30;;
16440;SDS011;8330;-33.858;151.184;2022-09-09T14:40:13;0.65;;;0.20;;
16440;SDS011;8330;-33.858;151.184;2022-09-09T14:42:44;0.20;;;0.10;;
16440;SDS011;8330;-33.858;151.184;2022-09-09T14:45:15;0.20;;;0.20;;
16440;SDS011;8330;-33.858;151.184;2022-09-09T14:47:45;0.75;;;0.20;;
16440;SDS011;8330;-33.858;151.184;2022-09-09T14:50:18;0.35;;;0.30;;
16440;SDS011;8330;-33.858;151.184;2022-09-09T14:52:49;0.20;;;0.20;;
16440;SDS011;8330;-33.858;151.184;2022-09-09T14:55:22;0.50;;;0.20;;
16440;SDS011;8330;-33.858;151.184;2022-09-09T14:57:54;0.65;;;0.28;;
16440;SDS011;8330;-33.858;151.184;2022-09-09T15:00:28;0.22;;;0.10;;
16440;SDS011;8330;-33.858;151.184;2022-09-09T15:02:59;1.25;;;0.20;;
16440;SDS011;8330;-33.858;151.184;2022-09-09T15:05:29;0.20;;;0.20;;
16440;SDS011;8330;-33.858;151.184;2022-09-09T15:08:00;0.10;;;0.10;;
16440;SDS011;8330;-33.858;151.184;2022-09-09T15:10:33;0.10;;;0.10;;
16440;SDS011;8330;-33.858;151.184;2022-09-09T15:13:05;0.47;;;0.20;;
16440;SDS011;8330;-33.858;151.184;2022-09-09T15:15:37;0.20;;;0.20;;
16440;SDS011;8330;-33.858;151.184;2022-09-09T15:18:07;0.20;;;0.20;;